Terminal Aerodrome Forecast
Issued by NWS Cleveland, OH

Home | Current Version | Previous Version | Text Only | Print | Product List | Glossary Off
Versions: 1 2 3 4 5 6 7 8 9 10 11 12 13 14 15 16 17 18 19

000
FTUS41 KCLE 190500
TAFYNG
TAF
KYNG 190520Z 1906/2006 30010KT P6SM OVC035
      TEMPO 1906/1910 5SM -RA BR OVC015
     FM191000 36008KT P6SM OVC035
      TEMPO 1910/1914 -RA OVC025
     FM191400 30006KT P6SM BKN035
      TEMPO 1916/1920 SCT035
     FM192000 26008KT P6SM SCT250
     FM200200 20005KT P6SM BKN250=

USA.gov is the U.S. government's official web portal to all federal, state and local government web resources and services.